sensor_id;sensor_type;location;lat;lon;timestamp;temperature;humidity
17364;DHT22;8799;43.594;13.526;2022-08-21T00:01:03;24.70;99.90
17364;DHT22;8799;43.594;13.526;2022-08-21T00:03:33;24.70;99.90
17364;DHT22;8799;43.594;13.526;2022-08-21T00:06:01;24.80;99.90
17364;DHT22;8799;43.594;13.526;2022-08-21T00:08:29;24.90;99.90
17364;DHT22;8799;43.594;13.526;2022-08-21T00:10:57;25.00;99.90
17364;DHT22;8799;43.594;13.526;2022-08-21T00:13:25;25.00;99.90
17364;DHT22;8799;43.594;13.526;2022-08-21T00:15:54;24.90;99.90
17364;DHT22;8799;43.594;13.526;2022-08-21T00:18:21;24.80;99.90
17364;DHT22;8799;43.594;13.526;2022-08-21T00:20:51;24.70;99.90
17364;DHT22;8799;43.594;13.526;2022-08-21T00:23:19;24.70;99.90
17364;DHT22;8799;43.594;13.526;2022-08-21T00:25:47;24.70;99.90
17364;DHT22;8799;43.594;13.526;2022-08-21T00:28:16;24.70;99.90
17364;DHT22;8799;43.594;13.526;2022-08-21T00:30:43;24.70;99.90
17364;DHT22;8799;43.594;13.526;2022-08-21T00:33:12;24.60;99.90
17364;DHT22;8799;43.594;13.526;2022-08-21T00:35:41;24.60;99.90
17364;DHT22;8799;43.594;13.526;2022-08-21T00:38:11;24.60;99.90
17364;DHT22;8799;43.594;13.526;2022-08-21T00:40:42;24.50;99.90
17364;DHT22;8799;43.594;13.526;2022-08-21T00:43:12;24.50;99.90
17364;DHT22;8799;43.594;13.526;2022-08-21T00:45:41;24.50;99.90
17364;DHT22;8799;43.594;13.526;2022-08-21T00:48:09;24.50;99.90
17364;DHT22;8799;43.594;13.526;2022-08-21T00:50:40;24.50;99.90
17364;DHT22;8799;43.594;13.526;2022-08-21T00:53:08;24.50;99.90
17364;DHT22;8799;43.594;13.526;2022-08-21T00:55:40;24.60;99.90
17364;DHT22;8799;43.594;13.526;2022-08-21T00:58:11;24.60;99.90
17364;DHT22;8799;43.594;13.526;2022-08-21T01:00:42;24.60;99.90
17364;DHT22;8799;43.594;13.526;2022-08-21T01:03:12;24.60;99.90
17364;DHT22;8799;43.594;13.526;2022-08-21T01:05:42;24.50;99.90
17364;DHT22;8799;43.594;13.526;2022-08-21T01:08:10;24.40;99.90
17364;DHT22;8799;43.594;13.526;2022-08-21T01:10:40;24.40;99.90
17364;DHT22;8799;43.594;13.526;2022-08-21T01:13:10;24.40;99.90
17364;DHT22;8799;43.594;13.526;2022-08-21T01:15:43;24.40;99.90
17364;DHT22;8799;43.594;13.526;2022-08-21T01:18:12;24.40;99.90
17364;DHT22;8799;43.594;13.526;2022-08-21T01:20:44;24.40;99.90
17364;DHT22;8799;43.594;13.526;2022-08-21T01:23:14;24.60;99.90
17364;DHT22;8799;43.594;13.526;2022-08-21T01:25:42;24.80;99.90
17364;DHT22;8799;43.594;13.526;2022-08-21T01:28:13;24.70;99.90
17364;DHT22;8799;43.594;13.526;2022-08-21T01:30:42;24.70;99.90
17364;DHT22;8799;43.594;13.526;2022-08-21T01:33:11;24.60;99.90
17364;DHT22;8799;43.594;13.526;2022-08-21T01:35:38;24.50;99.90
17364;DHT22;8799;43.594;13.526;2022-08-21T01:38:06;24.40;99.90
17364;DHT22;8799;43.594;13.526;2022-08-21T01:40:36;24.40;99.90
17364;DHT22;8799;43.594;13.526;2022-08-21T01:43:04;24.50;99.90
17364;DHT22;8799;43.594;13.526;2022-08-21T01:45:31;24.60;99.90
17364;DHT22;8799;43.594;13.526;2022-08-21T01:47:59;24.70;99.90
17364;DHT22;8799;43.594;13.526;2022-08-21T01:50:28;24.80;99.90
17364;DHT22;8799;43.594;13.526;2022-08-21T01:52:59;24.90;99.90
17364;DHT22;8799;43.594;13.526;2022-08-21T01:55:27;25.00;99.90
17364;DHT22;8799;43.594;13.526;2022-08-21T01:57:58;25.00;99.90
17364;DHT22;8799;43.594;13.526;2022-08-21T02:00:26;24.90;99.90
17364;DHT22;8799;43.594;13.526;2022-08-21T02:02:54;24.80;99.90
17364;DHT22;8799;43.594;13.526;2022-08-21T02:05:21;24.80;99.90
17364;DHT22;8799;43.594;13.526;2022-08-21T02:07:51;24.80;99.90
17364;DHT22;8799;43.594;13.526;2022-08-21T02:10:22;24.90;99.90
17364;DHT22;8799;43.594;13.526;2022-08-21T02:12:50;25.00;99.90
17364;DHT22;8799;43.594;13.526;2022-08-21T02:15:19;25.00;99.90
17364;DHT22;8799;43.594;13.526;2022-08-21T02:17:50;25.10;99.90
17364;DHT22;8799;43.594;13.526;2022-08-21T02:20:21;25.10;99.90
17364;DHT22;8799;43.594;13.526;2022-08-21T02:22:50;25.10;99.90
17364;DHT22;8799;43.594;13.526;2022-08-21T02:25:21;25.10;99.90
17364;DHT22;8799;43.594;13.526;2022-08-21T02:27:49;25.10;99.90
17364;DHT22;8799;43.594;13.526;2022-08-21T02:30:21;25.20;99.90
17364;DHT22;8799;43.594;13.526;2022-08-21T02:32:50;25.20;99.90
17364;DHT22;8799;43.594;13.526;2022-08-21T02:35:19;25.10;99.90
17364;DHT22;8799;43.594;13.526;2022-08-21T02:37:48;25.20;99.70
17364;DHT22;8799;43.594;13.526;2022-08-21T02:40:17;25.20;99.70
17364;DHT22;8799;43.594;13.526;2022-08-21T02:42:45;25.20;99.30
17364;DHT22;8799;43.594;13.526;2022-08-21T02:45:14;25.20;98.90
17364;DHT22;8799;43.594;13.526;2022-08-21T02:47:49;25.20;98.70
17364;DHT22;8799;43.594;13.526;2022-08-21T02:50:20;25.10;99.90
17364;DHT22;8799;43.594;13.526;2022-08-21T02:52:48;25.10;99.90
17364;DHT22;8799;43.594;13.526;2022-08-21T02:55:16;25.00;99.90
17364;DHT22;8799;43.594;13.526;2022-08-21T02:57:44;25.00;99.90
17364;DHT22;8799;43.594;13.526;2022-08-21T03:00:12;25.00;99.90
17364;DHT22;8799;43.594;13.526;2022-08-21T03:02:40;25.00;99.90
17364;DHT22;8799;43.594;13.526;2022-08-21T03:05:10;25.00;99.90
17364;DHT22;8799;43.594;13.526;2022-08-21T03:07:37;25.00;99.90
17364;DHT22;8799;43.594;13.526;2022-08-21T03:10:06;24.90;99.90
17364;DHT22;8799;43.594;13.526;2022-08-21T03:12:33;24.90;99.90
17364;DHT22;8799;43.594;13.526;2022-08-21T03:15:02;24.90;99.90
17364;DHT22;8799;43.594;13.526;2022-08-21T03:17:30;24.80;99.90
17364;DHT22;8799;43.594;13.526;2022-08-21T03:19:59;24.70;99.90
17364;DHT22;8799;43.594;13.526;2022-08-21T03:22:28;24.60;99.90
17364;DHT22;8799;43.594;13.526;2022-08-21T03:24:55;24.60;99.90
17364;DHT22;8799;43.594;13.526;2022-08-21T03:27:24;24.60;99.90
17364;DHT22;8799;43.594;13.526;2022-08-21T03:29:52;24.50;99.90
17364;DHT22;8799;43.594;13.526;2022-08-21T03:32:20;24.50;99.90
17364;DHT22;8799;43.594;13.526;2022-08-21T03:34:48;24.50;99.90
17364;DHT22;8799;43.594;13.526;2022-08-21T03:37:17;24.50;99.90
17364;DHT22;8799;43.594;13.526;2022-08-21T03:39:46;24.50;99.90
17364;DHT22;8799;43.594;13.526;2022-08-21T03:42:14;24.50;99.90
17364;DHT22;8799;43.594;13.526;2022-08-21T03:44:43;24.50;99.90
17364;DHT22;8799;43.594;13.526;2022-08-21T03:47:11;24.50;99.90
17364;DHT22;8799;43.594;13.526;2022-08-21T03:49:39;24.50;99.90
17364;DHT22;8799;43.594;13.526;2022-08-21T03:52:08;24.50;99.90
17364;DHT22;8799;43.594;13.526;2022-08-21T03:54:36;24.50;99.90
17364;DHT22;8799;43.594;13.526;2022-08-21T03:57:07;24.50;99.90
17364;DHT22;8799;43.594;13.526;2022-08-21T03:59:34;24.50;99.90
17364;DHT22;8799;43.594;13.526;2022-08-21T04:02:04;24.50;99.90
17364;DHT22;8799;43.594;13.526;2022-08-21T04:04:32;24.40;99.90
17364;DHT22;8799;43.594;13.526;2022-08-21T04:07:01;24.30;99.90
17364;DHT22;8799;43.594;13.526;2022-08-21T04:09:29;24.30;99.90
17364;DHT22;8799;43.594;13.526;2022-08-21T04:11:58;24.20;99.90
17364;DHT22;8799;43.594;13.526;2022-08-21T04:14:28;24.30;99.90
17364;DHT22;8799;43.594;13.526;2022-08-21T04:16:55;24.30;99.90
17364;DHT22;8799;43.594;13.526;2022-08-21T04:19:23;24.40;99.90
17364;DHT22;8799;43.594;13.526;2022-08-21T04:21:51;24.50;99.90
17364;DHT22;8799;43.594;13.526;2022-08-21T04:24:19;24.60;99.90
17364;DHT22;8799;43.594;13.526;2022-08-21T04:26:46;24.80;99.90
17364;DHT22;8799;43.594;13.526;2022-08-21T04:29:15;24.90;99.90
17364;DHT22;8799;43.594;13.526;2022-08-21T04:31:44;25.00;99.90
17364;DHT22;8799;43.594;13.526;2022-08-21T04:34:12;25.10;99.90
17364;DHT22;8799;43.594;13.526;2022-08-21T04:36:40;25.10;99.90
17364;DHT22;8799;43.594;13.526;2022-08-21T04:39:07;25.10;99.20
17364;DHT22;8799;43.594;13.526;2022-08-21T04:41:35;25.10;99.90
17364;DHT22;8799;43.594;13.526;2022-08-21T04:44:03;25.20;99.90
17364;DHT22;8799;43.594;13.526;2022-08-21T04:46:30;25.20;99.80
17364;DHT22;8799;43.594;13.526;2022-08-21T04:49:00;25.20;99.50
17364;DHT22;8799;43.594;13.526;2022-08-21T04:51:30;25.30;99.20
17364;DHT22;8799;43.594;13.526;2022-08-21T04:54:01;25.30;98.60
17364;DHT22;8799;43.594;13.526;2022-08-21T04:56:34;25.30;98.00
17364;DHT22;8799;43.594;13.526;2022-08-21T04:59:05;25.30;97.80
17364;DHT22;8799;43.594;13.526;2022-08-21T05:01:35;25.30;97.50
17364;DHT22;8799;43.594;13.526;2022-08-21T05:04:10;25.40;97.30
17364;DHT22;8799;43.594;13.526;2022-08-21T05:06:40;25.40;97.40
17364;DHT22;8799;43.594;13.526;2022-08-21T05:09:09;25.40;97.40
17364;DHT22;8799;43.594;13.526;2022-08-21T05:11:40;25.40;97.50
17364;DHT22;8799;43.594;13.526;2022-08-21T05:14:09;25.40;97.50
17364;DHT22;8799;43.594;13.526;2022-08-21T05:16:38;25.40;97.50
17364;DHT22;8799;43.594;13.526;2022-08-21T05:19:09;25.40;96.80
17364;DHT22;8799;43.594;13.526;2022-08-21T05:21:39;25.40;96.90
17364;DHT22;8799;43.594;13.526;2022-08-21T05:24:07;25.40;97.10
17364;DHT22;8799;43.594;13.526;2022-08-21T05:26:35;25.40;96.70
17364;DHT22;8799;43.594;13.526;2022-08-21T05:29:03;25.40;96.40
17364;DHT22;8799;43.594;13.526;2022-08-21T05:31:32;25.40;96.00
17364;DHT22;8799;43.594;13.526;2022-08-21T05:34:00;25.40;96.00
17364;DHT22;8799;43.594;13.526;2022-08-21T05:36:29;25.40;96.70
17364;DHT22;8799;43.594;13.526;2022-08-21T05:38:57;25.40;96.00
17364;DHT22;8799;43.594;13.526;2022-08-21T05:41:25;25.40;95.80
17364;DHT22;8799;43.594;13.526;2022-08-21T05:43:53;25.30;96.10
17364;DHT22;8799;43.594;13.526;2022-08-21T05:46:21;25.40;95.60
17364;DHT22;8799;43.594;13.526;2022-08-21T05:48:49;25.40;96.70
17364;DHT22;8799;43.594;13.526;2022-08-21T05:51:18;25.40;97.40
17364;DHT22;8799;43.594;13.526;2022-08-21T05:53:47;25.40;98.10
17364;DHT22;8799;43.594;13.526;2022-08-21T05:56:15;25.40;97.90
17364;DHT22;8799;43.594;13.526;2022-08-21T05:58:43;25.40;97.10
17364;DHT22;8799;43.594;13.526;2022-08-21T06:01:11;25.40;96.30
17364;DHT22;8799;43.594;13.526;2022-08-21T06:03:41;25.40;96.00
17364;DHT22;8799;43.594;13.526;2022-08-21T06:06:09;25.30;96.20
17364;DHT22;8799;43.594;13.526;2022-08-21T06:08:37;25.40;96.10
17364;DHT22;8799;43.594;13.526;2022-08-21T06:11:08;25.40;96.50
17364;DHT22;8799;43.594;13.526;2022-08-21T06:13:36;25.40;97.00
17364;DHT22;8799;43.594;13.526;2022-08-21T06:16:07;25.50;96.70
17364;DHT22;8799;43.594;13.526;2022-08-21T06:18:36;25.50;96.40
17364;DHT22;8799;43.594;13.526;2022-08-21T06:21:05;25.50;96.30
17364;DHT22;8799;43.594;13.526;2022-08-21T06:23:33;25.50;96.40
17364;DHT22;8799;43.594;13.526;2022-08-21T06:26:02;25.50;96.60
17364;DHT22;8799;43.594;13.526;2022-08-21T06:28:32;25.50;96.40
17364;DHT22;8799;43.594;13.526;2022-08-21T06:31:01;25.40;96.60
17364;DHT22;8799;43.594;13.526;2022-08-21T06:33:28;25.40;96.60
17364;DHT22;8799;43.594;13.526;2022-08-21T06:36:00;25.50;97.00
17364;DHT22;8799;43.594;13.526;2022-08-21T06:38:30;25.40;96.70
17364;DHT22;8799;43.594;13.526;2022-08-21T06:40:58;25.40;96.40
17364;DHT22;8799;43.594;13.526;2022-08-21T06:43:26;25.50;96.50
17364;DHT22;8799;43.594;13.526;2022-08-21T06:45:56;25.50;96.50
17364;DHT22;8799;43.594;13.526;2022-08-21T06:48:24;25.50;96.40
17364;DHT22;8799;43.594;13.526;2022-08-21T06:50:53;25.50;96.50
17364;DHT22;8799;43.594;13.526;2022-08-21T06:53:22;25.50;96.40
17364;DHT22;8799;43.594;13.526;2022-08-21T06:55:50;25.50;96.50
17364;DHT22;8799;43.594;13.526;2022-08-21T06:58:18;25.50;96.50
17364;DHT22;8799;43.594;13.526;2022-08-21T07:00:49;25.50;96.70
17364;DHT22;8799;43.594;13.526;2022-08-21T07:03:22;25.50;96.90
17364;DHT22;8799;43.594;13.526;2022-08-21T07:05:51;25.50;97.00
17364;DHT22;8799;43.594;13.526;2022-08-21T07:08:19;25.50;97.00
17364;DHT22;8799;43.594;13.526;2022-08-21T07:10:47;25.50;97.10
17364;DHT22;8799;43.594;13.526;2022-08-21T07:13:16;25.50;97.40
17364;DHT22;8799;43.594;13.526;2022-08-21T07:15:44;25.50;98.40
17364;DHT22;8799;43.594;13.526;2022-08-21T07:18:12;25.50;98.90
17364;DHT22;8799;43.594;13.526;2022-08-21T07:20:42;25.50;99.40
17364;DHT22;8799;43.594;13.526;2022-08-21T07:23:27;25.50;99.80
17364;DHT22;8799;43.594;13.526;2022-08-21T07:25:56;25.50;99.90
17364;DHT22;8799;43.594;13.526;2022-08-21T07:28:24;25.60;99.90
17364;DHT22;8799;43.594;13.526;2022-08-21T07:30:53;25.60;99.90
17364;DHT22;8799;43.594;13.526;2022-08-21T07:33:21;25.60;99.90
17364;DHT22;8799;43.594;13.526;2022-08-21T07:35:50;25.60;99.90
17364;DHT22;8799;43.594;13.526;2022-08-21T07:38:20;25.60;99.90
17364;DHT22;8799;43.594;13.526;2022-08-21T07:40:49;25.60;99.90
17364;DHT22;8799;43.594;13.526;2022-08-21T07:43:18;25.60;99.90
17364;DHT22;8799;43.594;13.526;2022-08-21T07:45:47;25.60;99.90
17364;DHT22;8799;43.594;13.526;2022-08-21T07:48:15;25.60;99.90
17364;DHT22;8799;43.594;13.526;2022-08-21T07:50:43;25.60;99.90
17364;DHT22;8799;43.594;13.526;2022-08-21T07:53:13;25.60;98.70
17364;DHT22;8799;43.594;13.526;2022-08-21T07:55:40;25.60;98.50
17364;DHT22;8799;43.594;13.526;2022-08-21T07:58:09;25.60;98.30
17364;DHT22;8799;43.594;13.526;2022-08-21T08:00:37;25.60;97.70
17364;DHT22;8799;43.594;13.526;2022-08-21T08:03:04;25.60;97.30
17364;DHT22;8799;43.594;13.526;2022-08-21T08:05:32;25.60;97.10
17364;DHT22;8799;43.594;13.526;2022-08-21T08:08:02;25.60;96.80
17364;DHT22;8799;43.594;13.526;2022-08-21T08:10:32;25.60;96.90
17364;DHT22;8799;43.594;13.526;2022-08-21T08:13:00;25.60;97.20
17364;DHT22;8799;43.594;13.526;2022-08-21T08:15:28;25.60;96.90
17364;DHT22;8799;43.594;13.526;2022-08-21T08:17:56;25.60;96.40
17364;DHT22;8799;43.594;13.526;2022-08-21T08:20:25;25.60;96.00
17364;DHT22;8799;43.594;13.526;2022-08-21T08:22:54;25.60;95.60
17364;DHT22;8799;43.594;13.526;2022-08-21T08:25:24;25.60;95.40
17364;DHT22;8799;43.594;13.526;2022-08-21T08:27:53;25.60;94.00
17364;DHT22;8799;43.594;13.526;2022-08-21T08:30:21;25.70;92.70
17364;DHT22;8799;43.594;13.526;2022-08-21T08:32:49;25.70;92.50
17364;DHT22;8799;43.594;13.526;2022-08-21T08:35:17;25.70;91.90
17364;DHT22;8799;43.594;13.526;2022-08-21T08:37:46;25.70;91.20
17364;DHT22;8799;43.594;13.526;2022-08-21T08:40:19;25.70;91.70
17364;DHT22;8799;43.594;13.526;2022-08-21T08:42:49;25.70;88.10
17364;DHT22;8799;43.594;13.526;2022-08-21T08:45:20;25.70;87.80
17364;DHT22;8799;43.594;13.526;2022-08-21T08:47:53;25.70;85.90
17364;DHT22;8799;43.594;13.526;2022-08-21T08:50:40;25.80;83.90
17364;DHT22;8799;43.594;13.526;2022-08-21T08:53:24;25.70;80.90
17364;DHT22;8799;43.594;13.526;2022-08-21T08:55:57;25.70;77.70
17364;DHT22;8799;43.594;13.526;2022-08-21T08:58:29;25.70;79.20
17364;DHT22;8799;43.594;13.526;2022-08-21T09:01:00;25.70;77.10
17364;DHT22;8799;43.594;13.526;2022-08-21T09:03:28;25.70;76.80
17364;DHT22;8799;43.594;13.526;2022-08-21T09:06:03;25.70;78.50
17364;DHT22;8799;43.594;13.526;2022-08-21T09:08:46;25.80;77.50
17364;DHT22;8799;43.594;13.526;2022-08-21T09:11:28;25.70;78.00
17364;DHT22;8799;43.594;13.526;2022-08-21T09:14:04;25.70;77.30
17364;DHT22;8799;43.594;13.526;2022-08-21T09:16:43;25.70;77.00
17364;DHT22;8799;43.594;13.526;2022-08-21T09:19:28;25.80;74.60
17364;DHT22;8799;43.594;13.526;2022-08-21T09:22:06;25.80;74.40
17364;DHT22;8799;43.594;13.526;2022-08-21T09:24:42;25.80;73.40
17364;DHT22;8799;43.594;13.526;2022-08-21T09:27:15;25.80;71.20
17364;DHT22;8799;43.594;13.526;2022-08-21T09:29:46;25.70;71.90
17364;DHT22;8799;43.594;13.526;2022-08-21T09:32:20;25.70;72.00
17364;DHT22;8799;43.594;13.526;2022-08-21T09:34:59;25.70;71.10
17364;DHT22;8799;43.594;13.526;2022-08-21T09:37:29;25.70;70.10
17364;DHT22;8799;43.594;13.526;2022-08-21T09:39:58;25.70;70.50
17364;DHT22;8799;43.594;13.526;2022-08-21T09:42:28;25.80;71.00
17364;DHT22;8799;43.594;13.526;2022-08-21T09:45:09;25.70;70.60
17364;DHT22;8799;43.594;13.526;2022-08-21T09:47:38;25.80;71.10
17364;DHT22;8799;43.594;13.526;2022-08-21T09:50:14;25.70;70.80
17364;DHT22;8799;43.594;13.526;2022-08-21T09:52:48;25.80;71.00
17364;DHT22;8799;43.594;13.526;2022-08-21T09:55:24;25.80;71.90
17364;DHT22;8799;43.594;13.526;2022-08-21T09:58:11;25.80;72.30
17364;DHT22;8799;43.594;13.526;2022-08-21T10:00:39;25.80;71.90
17364;DHT22;8799;43.594;13.526;2022-08-21T10:03:22;25.80;71.70
17364;DHT22;8799;43.594;13.526;2022-08-21T10:05:53;25.90;73.10
17364;DHT22;8799;43.594;13.526;2022-08-21T10:08:22;25.90;72.90
17364;DHT22;8799;43.594;13.526;2022-08-21T10:10:56;25.90;73.00
17364;DHT22;8799;43.594;13.526;2022-08-21T10:13:32;25.90;73.60
17364;DHT22;8799;43.594;13.526;2022-08-21T10:16:17;25.90;72.80
17364;DHT22;8799;43.594;13.526;2022-08-21T10:19:02;25.90;73.70
17364;DHT22;8799;43.594;13.526;2022-08-21T10:21:38;25.90;73.80
17364;DHT22;8799;43.594;13.526;2022-08-21T10:24:22;25.90;74.70
17364;DHT22;8799;43.594;13.526;2022-08-21T10:26:58;25.90;75.10
17364;DHT22;8799;43.594;13.526;2022-08-21T10:29:41;25.90;74.10
17364;DHT22;8799;43.594;13.526;2022-08-21T10:35:09;25.90;73.70
17364;DHT22;8799;43.594;13.526;2022-08-21T10:37:55;25.90;73.40
17364;DHT22;8799;43.594;13.526;2022-08-21T10:40:28;26.10;73.90
17364;DHT22;8799;43.594;13.526;2022-08-21T10:43:06;25.90;71.50
17364;DHT22;8799;43.594;13.526;2022-08-21T10:45:48;25.90;71.90
17364;DHT22;8799;43.594;13.526;2022-08-21T10:48:25;25.90;70.60
17364;DHT22;8799;43.594;13.526;2022-08-21T10:51:03;25.90;70.50
17364;DHT22;8799;43.594;13.526;2022-08-21T10:53:45;25.90;69.70
17364;DHT22;8799;43.594;13.526;2022-08-21T10:56:18;25.90;70.40
17364;DHT22;8799;43.594;13.526;2022-08-21T10:58:56;25.90;70.70
17364;DHT22;8799;43.594;13.526;2022-08-21T11:01:29;25.90;70.20
17364;DHT22;8799;43.594;13.526;2022-08-21T11:04:09;25.90;69.00
17364;DHT22;8799;43.594;13.526;2022-08-21T11:06:44;25.90;68.90
17364;DHT22;8799;43.594;13.526;2022-08-21T11:09:14;25.90;69.00
17364;DHT22;8799;43.594;13.526;2022-08-21T11:11:47;25.90;68.60
17364;DHT22;8799;43.594;13.526;2022-08-21T11:14:25;25.90;68.60
17364;DHT22;8799;43.594;13.526;2022-08-21T11:17:06;25.90;68.50
17364;DHT22;8799;43.594;13.526;2022-08-21T11:19:40;25.90;68.50
17364;DHT22;8799;43.594;13.526;2022-08-21T11:22:16;25.90;68.60
17364;DHT22;8799;43.594;13.526;2022-08-21T11:24:50;25.90;69.10
17364;DHT22;8799;43.594;13.526;2022-08-21T11:27:26;25.90;69.30
17364;DHT22;8799;43.594;13.526;2022-08-21T11:29:57;25.90;69.00
17364;DHT22;8799;43.594;13.526;2022-08-21T11:33:03;25.90;69.10
17364;DHT22;8799;43.594;13.526;2022-08-21T11:35:39;25.90;69.60
17364;DHT22;8799;43.594;13.526;2022-08-21T11:38:34;25.90;70.00
17364;DHT22;8799;43.594;13.526;2022-08-21T11:41:13;25.90;69.60
17364;DHT22;8799;43.594;13.526;2022-08-21T11:43:46;25.90;70.40
17364;DHT22;8799;43.594;13.526;2022-08-21T11:46:28;25.90;70.10
17364;DHT22;8799;43.594;13.526;2022-08-21T11:49:09;26.00;71.00
17364;DHT22;8799;43.594;13.526;2022-08-21T11:51:46;26.00;71.70
17364;DHT22;8799;43.594;13.526;2022-08-21T11:54:24;25.90;70.90
17364;DHT22;8799;43.594;13.526;2022-08-21T11:56:57;25.90;71.00
17364;DHT22;8799;43.594;13.526;2022-08-21T11:59:32;25.90;70.80
17364;DHT22;8799;43.594;13.526;2022-08-21T12:02:06;25.90;71.30
17364;DHT22;8799;43.594;13.526;2022-08-21T12:04:44;25.90;71.30
17364;DHT22;8799;43.594;13.526;2022-08-21T12:07:15;25.90;70.90
17364;DHT22;8799;43.594;13.526;2022-08-21T12:09:54;25.90;71.60
17364;DHT22;8799;43.594;13.526;2022-08-21T12:12:26;25.90;71.10
17364;DHT22;8799;43.594;13.526;2022-08-21T12:15:16;25.90;70.30
17364;DHT22;8799;43.594;13.526;2022-08-21T12:17:57;25.90;68.70
17364;DHT22;8799;43.594;13.526;2022-08-21T12:20:39;25.90;69.20
17364;DHT22;8799;43.594;13.526;2022-08-21T12:23:18;26.00;69.80
17364;DHT22;8799;43.594;13.526;2022-08-21T12:26:10;26.00;68.90
17364;DHT22;8799;43.594;13.526;2022-08-21T12:28:41;26.00;69.50
17364;DHT22;8799;43.594;13.526;2022-08-21T12:31:22;26.00;69.40
17364;DHT22;8799;43.594;13.526;2022-08-21T12:33:58;26.00;67.00
17364;DHT22;8799;43.594;13.526;2022-08-21T12:36:39;26.10;67.20
17364;DHT22;8799;43.594;13.526;2022-08-21T12:39:13;26.00;67.60
17364;DHT22;8799;43.594;13.526;2022-08-21T12:41:54;26.00;67.10
17364;DHT22;8799;43.594;13.526;2022-08-21T12:44:30;25.80;66.70
17364;DHT22;8799;43.594;13.526;2022-08-21T12:47:04;26.00;66.80
17364;DHT22;8799;43.594;13.526;2022-08-21T12:49:35;26.00;66.50
17364;DHT22;8799;43.594;13.526;2022-08-21T12:52:11;26.00;67.20
17364;DHT22;8799;43.594;13.526;2022-08-21T12:54:41;26.00;67.00
17364;DHT22;8799;43.594;13.526;2022-08-21T12:57:18;26.00;67.40
17364;DHT22;8799;43.594;13.526;2022-08-21T12:59:52;26.00;68.10
17364;DHT22;8799;43.594;13.526;2022-08-21T13:02:22;26.00;68.50
17364;DHT22;8799;43.594;13.526;2022-08-21T13:04:51;26.00;68.40
17364;DHT22;8799;43.594;13.526;2022-08-21T13:07:25;26.00;68.00
17364;DHT22;8799;43.594;13.526;2022-08-21T13:09:58;26.00;68.10
17364;DHT22;8799;43.594;13.526;2022-08-21T13:12:30;26.00;67.70
17364;DHT22;8799;43.594;13.526;2022-08-21T13:15:02;26.00;67.50
17364;DHT22;8799;43.594;13.526;2022-08-21T13:17:32;26.00;67.60
17364;DHT22;8799;43.594;13.526;2022-08-21T13:20:04;26.10;65.70
17364;DHT22;8799;43.594;13.526;2022-08-21T13:22:40;26.10;64.70
17364;DHT22;8799;43.594;13.526;2022-08-21T13:25:11;26.10;65.30
17364;DHT22;8799;43.594;13.526;2022-08-21T13:27:40;26.10;65.50
17364;DHT22;8799;43.594;13.526;2022-08-21T13:30:11;26.10;65.20
17364;DHT22;8799;43.594;13.526;2022-08-21T13:32:42;26.10;65.20
17364;DHT22;8799;43.594;13.526;2022-08-21T13:35:17;26.20;64.20
17364;DHT22;8799;43.594;13.526;2022-08-21T13:37:47;26.20;64.20
17364;DHT22;8799;43.594;13.526;2022-08-21T13:40:20;26.20;64.60
17364;DHT22;8799;43.594;13.526;2022-08-21T13:42:52;26.20;64.80
17364;DHT22;8799;43.594;13.526;2022-08-21T13:45:27;26.20;64.40
17364;DHT22;8799;43.594;13.526;2022-08-21T13:47:55;26.20;63.70
17364;DHT22;8799;43.594;13.526;2022-08-21T13:50:24;26.20;64.00
17364;DHT22;8799;43.594;13.526;2022-08-21T13:52:59;26.20;64.10
17364;DHT22;8799;43.594;13.526;2022-08-21T13:55:35;26.30;63.60
17364;DHT22;8799;43.594;13.526;2022-08-21T13:58:05;26.20;63.90
17364;DHT22;8799;43.594;13.526;2022-08-21T14:00:42;26.20;63.70
17364;DHT22;8799;43.594;13.526;2022-08-21T14:03:11;26.30;64.20
17364;DHT22;8799;43.594;13.526;2022-08-21T14:05:50;26.20;65.80
17364;DHT22;8799;43.594;13.526;2022-08-21T14:08:24;26.20;66.50
17364;DHT22;8799;43.594;13.526;2022-08-21T14:10:54;26.20;66.70
17364;DHT22;8799;43.594;13.526;2022-08-21T14:13:39;26.20;66.30
17364;DHT22;8799;43.594;13.526;2022-08-21T14:16:17;26.20;65.10
17364;DHT22;8799;43.594;13.526;2022-08-21T14:18:47;26.20;63.60
17364;DHT22;8799;43.594;13.526;2022-08-21T14:21:27;26.30;63.50
17364;DHT22;8799;43.594;13.526;2022-08-21T14:24:08;26.20;64.10
17364;DHT22;8799;43.594;13.526;2022-08-21T14:26:44;26.20;63.50
17364;DHT22;8799;43.594;13.526;2022-08-21T14:29:17;26.30;62.70
17364;DHT22;8799;43.594;13.526;2022-08-21T14:31:50;26.40;62.40
17364;DHT22;8799;43.594;13.526;2022-08-21T14:34:19;26.30;61.90
17364;DHT22;8799;43.594;13.526;2022-08-21T14:36:49;26.30;62.00
17364;DHT22;8799;43.594;13.526;2022-08-21T14:39:17;26.30;61.90
17364;DHT22;8799;43.594;13.526;2022-08-21T14:42:12;26.30;62.30
17364;DHT22;8799;43.594;13.526;2022-08-21T14:44:42;26.30;62.30
17364;DHT22;8799;43.594;13.526;2022-08-21T14:47:12;26.20;62.40
17364;DHT22;8799;43.594;13.526;2022-08-21T14:49:40;26.20;62.50
17364;DHT22;8799;43.594;13.526;2022-08-21T14:52:08;26.20;62.30
17364;DHT22;8799;43.594;13.526;2022-08-21T14:54:36;26.30;62.60
17364;DHT22;8799;43.594;13.526;2022-08-21T14:57:07;26.20;62.20
17364;DHT22;8799;43.594;13.526;2022-08-21T14:59:36;26.30;61.90
17364;DHT22;8799;43.594;13.526;2022-08-21T15:02:08;26.20;61.40
17364;DHT22;8799;43.594;13.526;2022-08-21T15:04:38;26.20;61.90
17364;DHT22;8799;43.594;13.526;2022-08-21T15:07:07;26.20;62.10
17364;DHT22;8799;43.594;13.526;2022-08-21T15:09:36;26.20;61.80
17364;DHT22;8799;43.594;13.526;2022-08-21T15:12:04;26.20;60.30
17364;DHT22;8799;43.594;13.526;2022-08-21T15:14:35;26.20;61.00
17364;DHT22;8799;43.594;13.526;2022-08-21T15:17:07;26.30;61.10
17364;DHT22;8799;43.594;13.526;2022-08-21T15:19:36;26.30;60.70
17364;DHT22;8799;43.594;13.526;2022-08-21T15:22:04;26.20;60.20
17364;DHT22;8799;43.594;13.526;2022-08-21T15:24:32;26.20;60.70
17364;DHT22;8799;43.594;13.526;2022-08-21T15:27:01;26.20;60.70
17364;DHT22;8799;43.594;13.526;2022-08-21T15:29:30;26.20;60.20
17364;DHT22;8799;43.594;13.526;2022-08-21T15:32:00;26.20;60.30
17364;DHT22;8799;43.594;13.526;2022-08-21T15:34:30;26.20;60.30
17364;DHT22;8799;43.594;13.526;2022-08-21T15:36:58;26.20;60.60
17364;DHT22;8799;43.594;13.526;2022-08-21T15:39:27;26.20;60.80
17364;DHT22;8799;43.594;13.526;2022-08-21T15:41:55;26.20;60.60
17364;DHT22;8799;43.594;13.526;2022-08-21T15:44:25;26.10;61.10
17364;DHT22;8799;43.594;13.526;2022-08-21T15:46:53;26.20;61.40
17364;DHT22;8799;43.594;13.526;2022-08-21T15:49:21;26.20;61.40
17364;DHT22;8799;43.594;13.526;2022-08-21T15:51:52;26.10;61.60
17364;DHT22;8799;43.594;13.526;2022-08-21T15:54:20;26.10;61.40
17364;DHT22;8799;43.594;13.526;2022-08-21T15:56:50;26.10;61.40
17364;DHT22;8799;43.594;13.526;2022-08-21T15:59:21;26.10;60.30